Airfield :
LOGIN :

Register | Disclaimer

   EN    FR    IT 

 










Legend :    VFR   Marginal VFR   IFR   Intensive IFR   Very Intensive IFR
Visi :
Ceiling :
>= 8 km
>= 3000ft
5 to 8 km
1000 to 3000 ft
1500m to 5 km
500 to 1000 ft
800 to 1500m
200 to 500 ft
< 800m
< 200 ft
Symbols :   Thunderstorms  Fog  Heavy snow  Heavy precipitations  Wind > 20 kt
SIGMETs :     Misc.  Thunderstorms  Icing  Turbulence  Mountain Waves  Volcanic Ashes






- Airport Elevation : 42 ft
- IATA code : LMO


EGQS - Lossiemouth

CURRENT METAR :
  • 300950Z 17023G36KT 9999 -RA FEW030 BKN080 13/08 Q0983 NOSIG RMK BLU BLU

EXPIRED METARs :
  • 300920Z 17022G34KT 9999 -RA FEW030 BKN080 13/09 Q0984 NOSIG RMK BLU BLU
  • 300850Z 17025G39KT 9999 -RA FEW035 BKN085 13/08 Q0985 NOSIG RMK BLU BLU
  • 300820Z 18021KT 9999 -RA FEW035 BKN080 13/09 Q0987 NOSIG RMK BLU BLU
  • 300750Z 17021G35KT 9999 -RA FEW035 BKN070 13/08 Q0988 NOSIG RMK BLU BLU
  • 300720Z 17021KT 9999 -RA FEW035 BKN080 13/09 Q0988 NOSIG RMK BLU BLU

TAF TAF EGQS
Valid from the 30 at 09:00 until the 01 at 03:00 UTC


300735Z 3009/0103 17025G35KT 9999 FEW024 BKN045
TEMPO 3009/3014 7000 RA SCT024
PROB40
TEMPO 3009/3013 17030G45KT
BECMG 3013/3015 24015KT
PROB30
TEMPO 3014/3018 7000 SHRA SCT024
TEMPO 3015/0103 24015G25KT



MET'MAP, your aeronautical weather chart ! - Copyright ORBIFLY December 2007 - Disclaimer

ORBIFLY MET'MAP TEAM :

Programming & Development : Alexandra Zaïnal
Original concept : Baudouin d'Aumeries
Technical & hardware support : Manuel Goepfert
Assistance : Marc-Olivier Méhu




SOURCES & CREDITS :

   NOAA